Time;durP1;ratioP1;P1;durP2;ratioP2;P2;SDS_P1;SDS_P2;PMS_P1;PMS_P2;Temp;Humidity;BMP_temperature;BMP_pressure;BME280_temperature;BME280_humidity;BME280_pressure;Samples;Min_cycle;Max_cycle;Signal;HPM_P1;HPM_P2
2021/12/10 00:01:12;;;;;;;14.63;5.87;;;;;;;7.40;84.62;101175.30;1892782;76;22136;-61
2021/12/10 00:03:48;;;;;;;16.25;6.78;;;;;;;7.37;84.60;101178.14;1876748;76;27890;-60
2021/12/10 00:06:44;;;;;;;15.45;6.62;;;;;;;7.43;84.34;101185.63;1874024;76;22147;-60
2021/12/10 00:09:20;;;;;;;14.95;6.28;;;;;;;7.39;84.45;101190.31;1892810;76;22553;-61
2021/12/10 00:12:31;;;;;;;19.30;6.45;;;;;;;7.36;84.59;101183.91;1892772;76;22152;-60
2021/12/10 00:15:05;;;;;;;12.55;5.53;;;;;;;7.32;84.86;101178.94;1892828;76;22553;-60
2021/12/10 00:17:37;;;;;;;17.57;6.92;;;;;;;7.30;84.96;101184.81;1874027;76;22132;-60
2021/12/10 00:20:31;;;;;;;15.98;6.55;;;;;;;7.26;85.03;101182.02;1874004;76;22145;-60
2021/12/10 00:23:08;;;;;;;15.15;6.35;;;;;;;7.24;85.17;101189.18;1874029;76;22124;-60
2021/12/10 00:25:47;;;;;;;14.23;5.92;;;;;;;7.23;85.28;101190.14;1871295;76;22550;-60
2021/12/10 00:28:40;;;;;;;16.07;6.12;;;;;;;7.20;85.39;101192.98;1865401;75;22185;-61
2021/12/10 00:31:42;;;;;;;15.70;5.67;;;;;;;7.16;85.63;101191.89;1874017;76;22134;-60
2021/12/10 00:34:40;;;;;;;13.45;5.58;;;;;;;7.17;85.65;101195.38;1873140;76;22129;-60
2021/12/10 00:37:14;;;;;;;16.42;6.50;;;;;;;7.16;85.71;101192.38;1874038;76;22132;-61
2021/12/10 00:39:51;;;;;;;15.93;5.80;;;;;;;7.10;85.75;101194.93;1874025;76;22128;-61
2021/12/10 00:42:28;;;;;;;14.43;5.28;;;;;;;7.11;85.78;101196.65;1874023;76;22554;-61
2021/12/10 00:45:20;;;;;;;12.47;5.37;;;;;;;7.09;85.85;101191.92;1874019;76;22121;-60
2021/12/10 00:47:53;;;;;;;15.03;5.28;;;;;;;7.11;85.95;101186.55;1874013;76;22538;-60
2021/12/10 00:50:32;;;;;;;14.65;5.25;;;;;;;7.15;85.93;101197.27;1874032;76;22136;-61
2021/12/10 00:53:04;;;;;;;10.65;4.50;;;;;;;7.17;85.91;101193.58;1874041;76;22128;-63
2021/12/10 00:55:36;;;;;;;13.10;5.15;;;;;;;7.20;85.75;101194.30;1892814;76;22124;-61
2021/12/10 00:58:28;;;;;;;12.80;5.12;;;;;;;7.17;85.75;101193.58;1874009;76;22208;-60
2021/12/10 01:01:06;;;;;;;11.08;4.62;;;;;;;7.15;85.66;101186.24;1874144;76;22142;-60
2021/12/10 01:04:11;;;;;;;12.13;5.10;;;;;;;7.11;85.66;101189.20;1874267;76;27856;-60
2021/12/10 01:06:46;;;;;;;9.93;4.80;;;;;;;7.19;85.64;101197.42;1857986;76;28312;-60
2021/12/10 01:09:23;;;;;;;14.87;4.75;;;;;;;7.36;85.40;101193.16;1874035;76;22128;-60
2021/12/10 01:12:04;;;;;;;13.43;5.92;;;;;;;7.41;85.02;101193.68;1874030;76;22569;-61
2021/12/10 01:23:56;;;;;;;9.88;4.50;;;;;;;7.32;84.86;101194.80;1874032;76;22137;-60
2021/12/10 01:29:11;;;;;;;12.25;4.83;;;;;;;7.17;85.04;101201.50;1874016;76;22554;-60
2021/12/10 01:31:43;;;;;;;11.97;4.58;;;;;;;7.10;85.15;101204.66;1874132;76;22554;-60
2021/12/10 01:34:15;;;;;;;11.48;4.75;;;;;;;7.09;85.23;101209.58;1874027;76;22145;-60
2021/12/10 01:37:06;;;;;;;12.05;4.30;;;;;;;7.08;85.40;101212.70;1890220;76;22165;-62
2021/12/10 01:39:40;;;;;;;11.28;4.70;;;;;;;7.11;85.47;101210.34;1874038;76;22137;-61
2021/12/10 01:42:32;;;;;;;14.05;5.00;;;;;;;7.14;85.40;101213.59;1892809;76;22565;-60
2021/12/10 01:44:52;;;;;;;10.93;4.97;;;;;;;7.18;85.42;101216.41;1892827;76;22128;-60
2021/12/10 01:47:31;;;;;;;10.90;4.80;;;;;;;7.23;85.28;101212.61;1874031;76;22559;-61
2021/12/10 01:50:22;;;;;;;11.53;4.55;;;;;;;7.24;85.21;101221.73;1874002;76;22173;-63
2021/12/10 01:52:56;;;;;;;9.60;4.00;;;;;;;7.20;84.93;101222.05;1874024;76;22186;-61
2021/12/10 01:55:49;;;;;;;8.40;3.80;;;;;;;7.18;84.98;101232.26;1874138;76;22586;-60
2021/12/10 01:58:23;;;;;;;8.90;4.10;;;;;;;7.13;84.96;101227.77;1892826;76;22124;-61
2021/12/10 02:01:21;;;;;;;8.13;4.25;;;;;;;7.10;85.10;101227.95;1892792;76;22128;-60
2021/12/10 02:03:54;;;;;;;10.80;4.05;;;;;;;7.08;85.13;101232.52;1874042;76;22142;-60
2021/12/10 02:06:25;;;;;;;10.13;4.65;;;;;;;7.09;85.19;101230.23;1871221;76;22120;-60
2021/12/10 02:08:57;;;;;;;10.53;4.25;;;;;;;7.09;85.17;101234.20;1874030;76;22124;-60
2021/12/10 02:11:48;;;;;;;14.75;5.00;;;;;;;7.08;85.01;101231.19;1892782;76;22128;-60
2021/12/10 02:14:21;;;;;;;6.95;3.77;;;;;;;7.08;85.08;101239.59;1874029;76;22146;-60
2021/12/10 02:16:56;;;;;;;12.68;4.53;;;;;;;7.09;85.08;101235.52;1874035;76;22136;-60
2021/12/10 02:19:28;;;;;;;11.43;4.75;;;;;;;7.08;84.97;101234.31;1873900;76;22625;-63
2021/12/10 02:22:19;;;;;;;14.93;5.20;;;;;;;7.11;85.07;101234.12;1873993;76;22583;-60
2021/12/10 02:24:51;;;;;;;11.60;4.83;;;;;;;7.11;85.06;101225.71;1874025;76;22546;-60
2021/12/10 02:27:42;;;;;;;10.75;4.60;;;;;;;7.09;84.89;101236.84;1874109;76;22121;-61
2021/12/10 02:30:14;;;;;;;14.95;5.20;;;;;;;7.05;84.75;101239.80;1892810;76;22585;-60
2021/12/10 02:33:06;;;;;;;9.83;4.03;;;;;;;7.00;84.88;101236.14;1892767;76;22174;-60
2021/12/10 02:35:38;;;;;;;10.90;4.17;;;;;;;7.00;84.86;101233.98;1874022;76;22586;-61
2021/12/10 02:38:29;;;;;;;11.95;4.37;;;;;;;6.97;84.85;101250.89;1892760;76;22128;-60
2021/12/10 02:41:01;;;;;;;10.48;4.42;;;;;;;6.97;85.05;101257.97;1892945;76;22158;-60
2021/12/10 02:43:32;;;;;;;8.93;4.10;;;;;;;6.98;85.04;101260.50;1890356;76;22128;-63
2021/12/10 02:46:24;;;;;;;11.57;4.53;;;;;;;6.97;84.84;101257.50;1892778;76;22120;-60
2021/12/10 02:48:56;;;;;;;12.55;4.35;;;;;;;6.96;84.92;101260.22;1892811;76;22128;-60
2021/12/10 02:51:28;;;;;;;12.58;4.70;;;;;;;6.97;84.87;101263.26;1892809;76;22553;-61
2021/12/10 02:54:23;;;;;;;9.23;4.20;;;;;;;6.98;84.71;101267.11;1871271;76;22141;-61
2021/12/10 02:56:53;;;;;;;7.78;4.22;;;;;;;6.94;84.68;101270.90;1892815;76;22153;-60
2021/12/10 02:59:43;;;;;;;10.80;4.42;;;;;;;6.93;84.74;101271.86;1873990;76;22137;-61
2021/12/10 03:02:17;;;;;;;8.50;4.35;;;;;;;6.89;84.50;101275.64;1892831;76;22161;-60
2021/12/10 03:04:49;;;;;;;11.38;4.62;;;;;;;6.83;84.54;101276.05;1871304;76;22558;-60
2021/12/10 03:07:22;;;;;;;10.98;4.47;;;;;;;6.78;84.57;101276.36;1874000;76;22125;-60
2021/12/10 03:10:24;;;;;;;10.25;3.90;;;;;;;6.66;84.74;101272.70;1873986;76;22138;-60
2021/12/10 03:13:02;;;;;;;12.65;5.08;;;;;;;6.56;84.84;101278.21;1892798;76;22553;-60
2021/12/10 03:15:53;;;;;;;10.60;4.78;;;;;;;6.51;85.31;101286.91;1892793;76;22561;-60
2021/12/10 03:18:25;;;;;;;9.30;4.33;;;;;;;6.51;85.43;101287.38;1874022;76;22129;-60
2021/12/10 03:20:56;;;;;;;11.28;4.87;;;;;;;6.49;85.46;101286.14;1874027;76;22583;-60
2021/12/10 03:23:28;;;;;;;14.70;5.42;;;;;;;6.48;85.54;101291.05;1892819;76;22131;-60
2021/12/10 03:26:00;;;;;;;29.25;6.50;;;;;;;6.48;85.79;101298.13;1874028;76;22117;-60
2021/12/10 03:28:32;;;;;;;11.10;5.25;;;;;;;6.50;85.80;101304.17;1892823;76;22119;-60
2021/12/10 03:31:24;;;;;;;13.45;5.08;;;;;;;6.55;85.68;101304.25;1892797;76;22145;-60
2021/12/10 03:33:56;;;;;;;19.30;7.50;;;;;;;6.52;85.58;101306.23;1874021;76;22148;-60
2021/12/10 03:36:49;;;;;;;13.93;6.80;;;;;;;6.51;85.69;101317.27;1892700;76;22128;-60
2021/12/10 03:39:23;;;;;;;14.98;6.35;;;;;;;6.52;85.73;101313.67;1874135;76;22174;-60
2021/12/10 03:42:15;;;;;;;9.23;4.83;;;;;;;6.54;85.55;101316.20;1892898;76;22119;-60
2021/12/10 03:44:47;;;;;;;12.13;5.10;;;;;;;6.51;85.35;101319.06;1874010;76;22174;-60
2021/12/10 03:47:38;;;;;;;7.00;3.87;;;;;;;6.44;85.31;101321.22;1873976;76;22190;-60
2021/12/10 03:50:12;;;;;;;9.65;4.75;;;;;;;6.40;85.56;101321.06;1874024;76;22136;-63
2021/12/10 03:53:03;;;;;;;14.53;5.45;;;;;;;6.44;85.82;101326.50;1892783;76;22119;-60
2021/12/10 03:55:35;;;;;;;12.43;4.95;;;;;;;6.46;85.65;101328.59;1874037;76;22152;-60
2021/12/10 03:58:06;;;;;;;10.38;4.40;;;;;;;6.49;85.63;101328.37;1874039;76;22178;-60
2021/12/10 04:00:58;;;;;;;10.38;4.80;;;;;;;6.50;85.46;101335.84;1874109;76;22120;-60
2021/12/10 04:03:30;;;;;;;10.68;4.62;;;;;;;6.48;85.39;101343.84;1892824;76;22161;-60
2021/12/10 04:06:21;;;;;;;11.70;4.65;;;;;;;6.49;85.27;101341.57;1892805;76;22132;-63
2021/12/10 04:08:53;;;;;;;9.73;4.47;;;;;;;6.46;85.30;101347.55;1874155;76;22149;-61
2021/12/10 04:11:25;;;;;;;11.93;5.53;;;;;;;6.44;85.35;101343.66;1874035;76;22573;-60
2021/12/10 04:14:15;;;;;;;16.73;6.75;;;;;;;6.44;85.53;101348.94;1892782;76;22128;-60
2021/12/10 04:16:54;;;;;;;10.58;5.08;;;;;;;6.45;85.33;101348.02;1874032;76;22146;-61
2021/12/10 04:19:40;;;;;;;8.83;4.30;;;;;;;6.42;85.07;101353.48;1892806;76;22128;-60
2021/12/10 04:22:13;;;;;;;11.83;5.45;;;;;;;6.37;84.96;101351.60;1892825;76;22128;-60
2021/12/10 04:25:06;;;;;;;10.13;4.33;;;;;;;6.36;85.03;101355.19;1892790;76;22141;-60
2021/12/10 04:27:38;;;;;;;11.43;5.00;;;;;;;6.36;85.08;101355.19;1892806;76;22560;-60
2021/12/10 04:30:35;;;;;;;12.37;5.37;;;;;;;6.36;85.16;101353.88;1892655;76;22124;-60
2021/12/10 04:33:04;;;;;;;14.07;5.22;;;;;;;6.38;84.92;101356.77;1874015;76;22125;-60
2021/12/10 04:35:57;;;;;;;17.17;6.45;;;;;;;6.36;84.71;101363.11;1874001;76;22166;-60
2021/12/10 04:38:32;;;;;;;16.65;6.30;;;;;;;6.33;84.60;101358.01;1892826;76;22557;-60
2021/12/10 04:41:24;;;;;;;14.80;5.12;;;;;;;6.30;84.53;101360.83;1874090;76;22150;-60
2021/12/10 04:43:56;;;;;;;11.15;4.85;;;;;;;6.25;84.36;101357.62;1892821;76;22135;-60
2021/12/10 04:46:27;;;;;;;12.93;4.78;;;;;;;6.15;84.37;101364.80;1874019;76;22150;-60
2021/12/10 04:49:03;;;;;;;8.58;3.95;;;;;;;6.08;84.64;101370.08;1892821;76;22116;-62
2021/12/10 04:51:57;;;;;;;6.17;3.45;;;;;;;6.04;84.65;101373.84;1892784;76;22557;-62
2021/12/10 04:54:28;;;;;;;12.90;5.22;;;;;;;5.96;84.71;101373.93;1874024;76;22129;-60
2021/12/10 04:57:00;;;;;;;8.33;4.10;;;;;;;5.93;85.02;101382.02;1874133;76;22150;-62
2021/12/10 04:59:51;;;;;;;8.38;3.85;;;;;;;5.92;85.16;101386.92;1873971;76;22617;-63
2021/12/10 05:02:23;;;;;;;8.78;4.05;;;;;;;5.92;85.34;101385.60;1892709;76;22123;-61
2021/12/10 05:05:14;;;;;;;9.73;4.08;;;;;;;5.93;85.38;101388.17;1892790;76;22128;-62
2021/12/10 05:08:06;;;;;;;15.03;5.58;;;;;;;5.95;85.20;101395.50;1880942;75;22185;-61
2021/12/10 05:10:39;;;;;;;9.53;4.58;;;;;;;5.92;85.25;101400.95;1873796;76;22148;-56
2021/12/10 05:13:11;;;;;;;10.20;4.25;;;;;;;5.90;85.11;101405.45;1892820;76;22140;-56
2021/12/10 05:15:44;;;;;;;15.30;5.70;;;;;;;5.87;85.07;101402.98;1892586;76;22132;-57
2021/12/10 05:18:16;;;;;;;12.90;5.83;;;;;;;5.82;85.23;101401.09;1873868;76;22128;-56
2021/12/10 05:21:09;;;;;;;15.93;6.25;;;;;;;5.78;85.37;101404.84;1892560;76;22169;-56
2021/12/10 05:23:41;;;;;;;13.38;6.65;;;;;;;5.70;85.37;101412.39;1892733;76;22585;-55
2021/12/10 05:26:33;;;;;;;14.87;6.40;;;;;;;5.61;85.66;101406.70;1873865;76;22150;-61
2021/12/10 05:29:06;;;;;;;17.17;7.60;;;;;;;5.60;85.86;101408.97;1873860;76;22157;-65
2021/12/10 05:31:40;;;;;;;16.80;7.50;;;;;;;5.60;85.98;101412.92;1873922;76;22190;-62
2021/12/10 05:34:12;;;;;;;16.60;7.62;;;;;;;5.62;86.10;101414.98;1873930;76;22615;-62
2021/12/10 05:37:03;;;;;;;15.58;7.58;;;;;;;5.66;86.10;101418.77;1892534;76;22141;-64
2021/12/10 05:39:35;;;;;;;23.67;8.88;;;;;;;5.68;85.77;101423.47;1892724;76;22128;-61
2021/12/10 05:42:26;;;;;;;21.57;8.40;;;;;;;5.65;85.67;101424.52;1873915;76;22213;-63
2021/12/10 05:44:58;;;;;;;17.07;7.20;;;;;;;5.68;85.69;101425.64;1892747;76;22149;-63
2021/12/10 05:47:29;;;;;;;16.05;6.75;;;;;;;5.73;85.45;101437.23;1871306;76;22575;-62
2021/12/10 05:50:23;;;;;;;13.35;6.60;;;;;;;5.71;85.11;101440.44;1873905;76;22599;-62
2021/12/10 05:52:54;;;;;;;15.05;6.33;;;;;;;5.68;84.91;101435.34;1873004;76;22225;-63
2021/12/10 05:55:27;;;;;;;18.40;6.15;;;;;;;5.64;84.94;101442.09;1891801;76;22672;-64
2021/12/10 05:57:59;;;;;;;19.35;6.80;;;;;;;5.65;84.77;101452.20;1892368;76;22213;-65
2021/12/10 06:01:02;;;;;;;17.07;6.70;;;;;;;5.68;84.94;101450.68;1862576;76;22164;-59
2021/12/10 06:03:35;;;;;;;19.90;8.58;;;;;;;5.71;85.00;101454.94;1892290;76;22612;-60
2021/12/10 06:06:07;;;;;;;19.25;7.92;;;;;;;5.71;84.76;101457.58;1873295;76;22168;-59
2021/12/10 06:08:39;;;;;;;23.60;10.40;;;;;;;5.71;84.77;101453.63;1871037;76;22192;-61
2021/12/10 06:11:30;;;;;;;25.30;10.48;;;;;;;5.70;84.24;101454.09;1892323;76;22148;-60
2021/12/10 06:14:02;;;;;;;22.50;10.20;;;;;;;5.67;84.35;101457.37;1873522;76;22186;-62
2021/12/10 06:16:34;;;;;;;26.68;10.43;;;;;;;5.64;84.41;101452.64;1873275;76;22157;-61
2021/12/10 06:19:07;;;;;;;28.40;11.35;;;;;;;5.65;84.37;101453.52;1875007;76;22195;-60
2021/12/10 06:21:39;;;;;;;24.12;11.00;;;;;;;5.65;84.23;101457.47;1873460;76;22200;-61
2021/12/10 06:24:11;;;;;;;28.05;11.57;;;;;;;5.64;84.26;101462.34;1865737;76;22206;-59
2021/12/10 06:27:03;;;;;;;19.65;8.90;;;;;;;5.67;84.01;101456.05;1870541;75;22163;-60
2021/12/10 06:29:52;;;;;;;24.63;10.10;;;;;;;5.66;83.73;101454.36;1873366;76;22555;-60
2021/12/10 06:32:26;;;;;;;19.85;8.20;;;;;;;5.62;83.84;101447.94;1892139;76;22184;-62
2021/12/10 06:34:58;;;;;;;22.07;9.18;;;;;;;5.63;83.62;101446.99;1889975;76;22165;-61
2021/12/10 06:37:49;;;;;;;34.27;12.05;;;;;;;5.61;83.63;101439.66;1892368;76;22148;-63
2021/12/10 06:40:23;;;;;;;31.93;13.78;;;;;;;5.60;83.69;101449.83;1892504;76;22160;-62
2021/12/10 06:43:14;;;;;;;30.37;13.68;;;;;;;5.63;83.66;101450.10;1873537;76;22217;-60
2021/12/10 06:45:46;;;;;;;27.45;11.10;;;;;;;5.64;83.71;101452.64;1892411;76;22144;-60
2021/12/10 06:48:38;;;;;;;22.22;9.00;;;;;;;5.65;83.52;101458.79;1873588;76;22590;-62
2021/12/10 06:51:19;;;;;;;23.70;9.50;;;;;;;5.63;83.40;101460.65;1889989;76;22654;-62
2021/12/10 06:53:51;;;;;;;21.27;8.58;;;;;;;5.60;83.05;101460.37;1873329;76;22164;-62
2021/12/10 06:56:23;;;;;;;24.63;8.70;;;;;;;5.57;83.17;101465.81;1873188;76;22257;-64
2021/12/10 06:58:55;;;;;;;21.17;9.05;;;;;;;5.58;83.31;101472.77;1873011;76;22235;-64
2021/12/10 07:01:46;;;;;;;20.50;7.92;;;;;;;5.63;83.44;101477.31;1873004;76;22161;-65
2021/12/10 07:04:17;;;;;;;20.08;7.75;;;;;;;5.64;82.89;101475.05;1873273;76;22234;-63
2021/12/10 07:07:09;;;;;;;18.40;7.45;;;;;;;5.60;82.67;101484.09;1873322;76;22174;-64
2021/12/10 07:09:41;;;;;;;17.73;7.08;;;;;;;5.52;82.61;101487.63;1873526;76;22136;-64
2021/12/10 07:12:13;;;;;;;18.52;6.53;;;;;;;5.49;82.67;101490.90;1873293;76;22164;-66
2021/12/10 07:14:44;;;;;;;20.08;6.55;;;;;;;5.51;82.89;101495.64;1873362;76;22160;-65
2021/12/10 07:17:38;;;;;;;16.65;6.65;;;;;;;5.52;82.95;101500.81;1873229;76;22225;-64
2021/12/10 07:20:13;;;;;;;20.92;6.87;;;;;;;5.54;83.03;101498.92;1892111;76;22621;-64
2021/12/10 07:22:45;;;;;;;19.30;7.58;;;;;;;5.51;82.79;101504.39;1866232;76;22164;-64
2021/12/10 07:25:19;;;;;;;21.12;7.40;;;;;;;5.50;82.92;101500.50;1872980;76;22617;-61
2021/12/10 07:27:52;;;;;;;14.93;6.25;;;;;;;5.50;82.83;101511.89;1873118;76;22200;-64
2021/12/10 07:30:25;;;;;;;18.45;6.87;;;;;;;5.51;82.62;101510.13;1873002;76;22192;-65
2021/12/10 07:32:58;;;;;;;19.57;8.05;;;;;;;5.53;82.74;101514.36;1892250;76;22646;-64
2021/12/10 07:35:29;;;;;;;18.50;6.97;;;;;;;5.53;82.43;101509.09;1889528;76;22164;-61
2021/12/10 07:38:07;;;;;;;22.60;7.83;;;;;;;5.51;82.24;101513.61;1872768;76;22204;-61
2021/12/10 07:40:40;;;;;;;21.85;8.63;;;;;;;5.49;82.40;101518.11;1873235;76;22196;-61
2021/12/10 07:43:12;;;;;;;20.20;7.03;;;;;;;5.51;82.47;101517.56;1873210;76;22185;-63
2021/12/10 07:45:46;;;;;;;19.20;7.37;;;;;;;5.54;82.32;101517.84;1873106;76;22172;-61
2021/12/10 07:48:38;;;;;;;26.30;10.38;;;;;;;5.53;81.83;101514.36;1873355;76;22200;-63
2021/12/10 07:51:20;;;;;;;25.65;9.95;;;;;;;5.51;82.05;101516.72;1892257;76;22171;-62
2021/12/10 07:53:57;;;;;;;26.12;12.80;;;;;;;5.53;82.00;101516.16;1892289;76;22144;-66
2021/12/10 07:56:30;;;;;;;24.10;9.15;;;;;;;5.53;82.06;101513.05;1892246;76;22181;-65
2021/12/10 07:59:02;;;;;;;20.70;8.00;;;;;;;5.53;81.94;101510.41;1891778;76;22140;-63
2021/12/10 08:01:53;;;;;;;25.37;7.28;;;;;;;5.54;81.59;101505.98;1873243;76;22164;-63
2021/12/10 08:04:25;;;;;;;17.37;7.12;;;;;;;5.51;81.62;101499.12;1869031;76;22645;-63
2021/12/10 08:06:57;;;;;;;27.05;9.78;;;;;;;5.49;81.78;101508.88;1873495;76;22193;-63
2021/12/10 08:09:29;;;;;;;22.35;10.00;;;;;;;5.50;82.00;101503.13;1873327;76;22174;-64
2021/12/10 08:12:01;;;;;;;22.67;8.13;;;;;;;5.51;82.17;101506.18;1891969;76;22148;-59
2021/12/10 08:14:55;;;;;;;23.12;7.95;;;;;;;5.54;82.05;101497.60;1889429;76;22181;-62
2021/12/10 08:17:27;;;;;;;18.55;8.05;;;;;;;5.54;82.13;101497.60;1873110;76;22157;-63
2021/12/10 08:20:21;;;;;;;26.12;8.20;;;;;;;5.58;82.29;101486.42;1873078;76;22168;-62
2021/12/10 08:22:53;;;;;;;22.10;9.00;;;;;;;5.59;82.20;101491.60;1873692;76;22213;-59
2021/12/10 08:25:44;;;;;;;26.62;11.63;;;;;;;5.58;82.32;101488.59;1870664;76;22157;-61
2021/12/10 08:28:16;;;;;;;21.12;8.95;;;;;;;5.60;82.54;101486.73;1892081;76;22143;-60
2021/12/10 08:30:48;;;;;;;20.50;9.13;;;;;;;5.62;82.63;101488.80;1873474;76;22129;-61
2021/12/10 08:33:21;;;;;;;23.18;8.58;;;;;;;5.61;82.80;101483.63;1892298;76;22191;-63
2021/12/10 08:35:58;;;;;;;21.27;8.85;;;;;;;5.56;82.82;101490.95;1870867;76;22165;-59
2021/12/10 08:38:30;;;;;;;25.70;10.32;;;;;;;5.53;83.00;101490.64;1870929;76;22129;-60
2021/12/10 08:41:28;;;;;;;28.52;11.33;;;;;;;5.58;83.30;101492.55;1872887;76;22180;-64
2021/12/10 08:44:04;;;;;;;22.15;10.15;;;;;;;5.61;83.42;101486.27;1873323;76;22157;-63
2021/12/10 08:46:55;;;;;;;30.62;10.60;;;;;;;5.64;83.26;101492.66;1872375;76;22572;-62
2021/12/10 08:49:28;;;;;;;24.43;11.80;;;;;;;5.63;83.28;101484.37;1889425;76;22221;-62
2021/12/10 08:52:02;;;;;;;24.30;10.63;;;;;;;5.64;83.21;101493.97;1891894;76;22159;-65
2021/12/10 08:54:37;;;;;;;22.50;8.70;;;;;;;5.60;83.20;101492.00;1892306;76;22217;-62
2021/12/10 08:57:09;;;;;;;23.30;9.95;;;;;;;5.61;83.28;101493.70;1870650;76;22156;-59
2021/12/10 09:00:00;;;;;;;24.32;9.58;;;;;;;5.62;83.02;101494.07;1892031;76;22191;-61
2021/12/10 09:02:34;;;;;;;25.20;10.05;;;;;;;5.58;82.82;101493.86;1873201;76;22751;-60
2021/12/10 09:05:09;;;;;;;29.32;9.53;;;;;;;5.57;82.84;101493.95;1856158;76;22215;-62
2021/12/10 09:07:43;;;;;;;22.52;9.30;;;;;;;5.53;82.98;101493.28;1860087;76;22223;-60
2021/12/10 09:10:19;;;;;;;23.25;8.00;;;;;;;5.52;83.01;101501.28;1873444;76;22213;-60
2021/12/10 09:13:14;;;;;;;34.10;11.53;;;;;;;5.48;83.09;101503.23;1873410;76;22178;-59
2021/12/10 09:15:50;;;;;;;26.73;10.90;;;;;;;5.49;83.12;101501.44;1873235;76;22633;-60
2021/12/10 09:18:22;;;;;;;27.50;11.88;;;;;;;5.52;83.12;101508.72;1873495;76;22605;-65
2021/12/10 09:20:59;;;;;;;33.65;15.03;;;;;;;5.57;83.00;101510.63;1892402;76;22592;-62
2021/12/10 09:23:31;;;;;;;26.95;10.72;;;;;;;5.59;82.86;101510.52;1873643;76;22213;-61
2021/12/10 09:26:27;;;;;;;25.68;10.48;;;;;;;5.59;82.87;101512.69;1873511;76;22161;-60
2021/12/10 09:29:08;;;;;;;24.82;8.25;;;;;;;5.60;82.81;101517.05;1873630;76;22172;-61
2021/12/10 09:31:42;;;;;;;23.55;8.78;;;;;;;5.61;82.49;101517.42;1892395;76;22601;-61
2021/12/10 09:34:15;;;;;;;25.48;9.88;;;;;;;5.60;82.50;101513.09;1892300;76;22596;-59
2021/12/10 09:37:07;;;;;;;25.27;11.03;;;;;;;5.62;82.48;101520.91;1867850;75;22223;-61
2021/12/10 09:39:49;;;;;;;27.32;10.85;;;;;;;5.64;82.27;101518.55;1880405;76;22160;-63
2021/12/10 09:42:32;;;;;;;35.45;16.32;;;;;;;5.62;82.25;101526.18;1865566;76;22204;-61
2021/12/10 09:45:27;;;;;;;27.35;10.82;;;;;;;5.61;82.09;101529.28;1873594;76;22157;-63
2021/12/10 09:48:00;;;;;;;30.50;12.35;;;;;;;5.57;82.09;101522.95;1892267;76;22588;-59
2021/12/10 09:50:35;;;;;;;22.87;10.55;;;;;;;5.54;82.28;101526.59;1870833;76;22614;-60
2021/12/10 09:53:28;;;;;;;25.52;9.50;;;;;;;5.55;82.35;101529.64;1879060;75;22187;-59
2021/12/10 09:56:01;;;;;;;33.40;12.40;;;;;;;5.54;82.21;101531.87;1891986;76;22212;-60
2021/12/10 09:58:53;;;;;;;28.12;10.40;;;;;;;5.52;82.35;101533.76;1873183;76;22202;-62
2021/12/10 10:01:34;;;;;;;24.18;8.53;;;;;;;5.49;82.15;101528.64;1892062;76;22155;-60
2021/12/10 10:04:05;;;;;;;24.50;10.58;;;;;;;5.43;82.30;101534.27;1892292;76;22181;-59
2021/12/10 10:06:42;;;;;;;25.75;8.58;;;;;;;5.42;82.55;101534.37;1892659;76;22163;-60
2021/12/10 10:09:33;;;;;;;24.70;9.75;;;;;;;5.41;82.47;101533.52;1879466;75;22639;-60
2021/12/10 10:12:31;;;;;;;26.65;9.35;;;;;;;5.45;82.70;101534.17;1873763;76;22622;-61
2021/12/10 10:15:27;;;;;;;25.60;8.38;;;;;;;5.48;82.71;101529.59;1892532;76;22108;-60
2021/12/10 10:18:20;;;;;;;32.80;10.82;;;;;;;5.50;82.40;101531.66;1876582;76;27919;-58
2021/12/10 10:20:56;;;;;;;32.50;10.60;;;;;;;5.55;82.09;101534.91;1873799;76;22647;-59
2021/12/10 10:23:29;;;;;;;25.32;8.60;;;;;;;5.58;81.84;101537.36;1892599;76;22136;-59
2021/12/10 10:26:05;;;;;;;24.65;9.25;;;;;;;5.56;81.65;101535.76;1892554;76;22172;-58
2021/12/10 10:28:55;;;;;;;34.50;9.98;;;;;;;5.50;81.48;101537.40;1873843;76;22169;-59
2021/12/10 10:31:27;;;;;;;29.07;10.72;;;;;;;5.44;81.72;101538.59;1873781;76;22666;-59
2021/12/10 10:34:00;;;;;;;35.40;11.40;;;;;;;5.41;81.83;101541.42;1873853;76;22178;-59
2021/12/10 10:36:33;;;;;;;34.90;11.03;;;;;;;5.34;81.75;101533.46;1873631;76;22152;-59
2021/12/10 10:39:13;;;;;;;31.23;9.75;;;;;;;5.23;81.75;101543.75;1873577;76;22201;-60
2021/12/10 10:41:48;;;;;;;30.55;9.13;;;;;;;5.13;82.04;101538.14;1873452;76;22222;-60
2021/12/10 10:44:40;;;;;;;28.45;9.13;;;;;;;5.09;82.39;101540.55;1875203;75;22199;-58
2021/12/10 10:47:23;;;;;;;28.57;10.93;;;;;;;5.01;82.73;101542.27;1873751;76;22160;-58
2021/12/10 10:49:59;;;;;;;27.80;8.98;;;;;;;4.95;82.90;101547.88;1889979;76;22160;-60
2021/12/10 10:52:54;;;;;;;26.33;9.18;;;;;;;4.90;82.85;101546.43;1873339;76;22209;-60
2021/12/10 10:55:31;;;;;;;24.03;8.57;;;;;;;4.86;82.83;101541.78;1857450;76;27957;-60
2021/12/10 10:58:25;;;;;;;26.12;8.63;;;;;;;4.91;82.53;101541.06;1873280;76;22212;-59
2021/12/10 11:01:09;;;;;;;31.70;8.58;;;;;;;4.91;82.60;101545.48;1870635;76;22169;-56
2021/12/10 11:03:46;;;;;;;27.67;10.32;;;;;;;4.86;82.65;101547.05;1868880;76;22642;-59
2021/12/10 11:06:22;;;;;;;34.05;11.70;;;;;;;4.81;82.61;101551.24;1892266;76;22188;-62
2021/12/10 11:09:34;;;;;;;28.62;8.53;;;;;;;4.78;82.71;101546.59;1875324;75;22191;-60
2021/12/10 11:12:10;;;;;;;19.30;7.92;;;;;;;4.78;82.61;101546.59;1892141;76;22156;-61
2021/12/10 11:14:46;;;;;;;18.77;7.05;;;;;;;4.77;82.42;101545.75;1873108;76;22157;-59
2021/12/10 11:17:44;;;;;;;29.05;9.78;;;;;;;4.74;82.17;101548.53;1873198;76;22250;-61
2021/12/10 11:20:25;;;;;;;36.53;13.75;;;;;;;4.70;82.22;101548.77;1868990;76;23278;-64
2021/12/10 11:23:00;;;;;;;25.62;8.70;;;;;;;4.69;82.20;101551.87;1873637;76;22605;-64
2021/12/10 11:25:45;;;;;;;23.02;7.03;;;;;;;4.72;81.96;101553.51;1892056;76;22136;-62
2021/12/10 11:28:24;;;;;;;24.70;7.75;;;;;;;4.71;81.26;101558.40;1889908;73;22290;-56
2021/12/10 11:31:16;;;;;;;20.30;6.78;;;;;;;4.67;81.08;101558.17;1891955;76;22179;-58
2021/12/10 11:33:50;;;;;;;24.25;7.70;;;;;;;4.65;80.57;101561.33;1873146;76;22589;-57
2021/12/10 11:36:42;;;;;;;28.32;8.45;;;;;;;4.62;80.03;101554.46;1870395;76;22174;-58
2021/12/10 11:39:14;;;;;;;22.77;6.65;;;;;;;4.59;80.01;101559.88;1873065;76;22180;-59
2021/12/10 11:41:46;;;;;;;24.55;7.47;;;;;;;4.63;79.98;101563.20;1873383;76;22161;-58
2021/12/10 11:44:22;;;;;;;21.27;6.33;;;;;;;4.69;79.84;101562.87;1867628;76;22221;-61
2021/12/10 11:47:26;;;;;;;19.48;6.15;;;;;;;4.72;78.60;101573.25;1872902;76;22605;-59
2021/12/10 11:49:47;;;;;;;21.60;6.15;;;;;;;4.71;78.45;101575.51;1872950;76;22188;-58
2021/12/10 11:52:21;;;;;;;19.82;7.28;;;;;;;4.71;77.45;101575.51;1872803;76;22149;-60
2021/12/10 11:55:06;;;;;;;23.38;6.70;;;;;;;4.69;77.30;101577.35;1871566;76;22954;-61
2021/12/10 11:57:37;;;;;;;19.27;6.72;;;;;;;4.68;76.68;101584.88;1873147;76;22145;-60
2021/12/10 12:00:33;;;;;;;25.10;9.15;;;;;;;4.63;75.83;101588.20;1892289;76;22204;-60
2021/12/10 12:03:07;;;;;;;32.28;7.47;;;;;;;4.61;76.01;101585.20;1892106;76;22657;-46
2021/12/10 12:05:42;;;;;;;25.15;7.40;;;;;;;4.65;77.11;101599.49;1873590;76;22684;-37
2021/12/10 12:08:38;;;;;;;21.20;6.55;;;;;;;6.62;94.92;101599.09;1892454;76;22128;-37
2021/12/10 12:11:11;;;;;;;19.07;5.65;;;;;;;9.10;98.05;101593.59;1873385;76;22156;-36
2021/12/10 12:13:53;;;;;;;18.20;5.65;;;;;;;11.27;94.90;101595.95;1873410;76;22166;-37
2021/12/10 12:16:17;;;;;;;19.62;5.28;;;;;;;13.20;89.44;101586.53;1845152;76;22159;-35
2021/12/10 12:18:52;;;;;;;14.00;5.40;;;;;;;14.90;82.95;101583.08;1892115;76;22183;-38
2021/12/10 12:21:55;;;;;;;14.63;5.40;;;;;;;16.52;75.62;101585.39;1873449;76;22182;-39
2021/12/10 12:27:10;;;;;;;17.25;5.62;;;;;;;18.63;66.25;101591.64;1892327;76;22633;-34
2021/12/10 12:30:06;;;;;;;19.40;6.00;;;;;;;19.55;61.75;101584.83;1873499;76;22133;-36
2021/12/10 12:32:40;;;;;;;13.72;4.92;;;;;;;20.20;58.89;101584.96;1873257;76;22635;-34
2021/12/10 12:35:24;;;;;;;17.55;5.97;;;;;;;20.75;56.32;101580.27;1872845;76;22125;-35
2021/12/10 12:38:27;;;;;;;18.00;6.10;;;;;;;21.27;54.10;101576.15;1873079;76;22157;-33